sensor_id;sensor_type;location;lat;lon;timestamp;P1;durP1;ratioP1;P2;durP2;ratioP2
27533;SDS011;14973;51.460;7.008;2022-10-31T00:01:33;35.15;;;12.93;;
27533;SDS011;14973;51.460;7.008;2022-10-31T00:04:01;27.23;;;12.13;;
27533;SDS011;14973;51.460;7.008;2022-10-31T00:06:27;27.15;;;12.65;;
27533;SDS011;14973;51.460;7.008;2022-10-31T00:08:56;28.58;;;12.55;;
27533;SDS011;14973;51.460;7.008;2022-10-31T00:11:24;28.13;;;11.60;;
27533;SDS011;14973;51.460;7.008;2022-10-31T00:13:50;33.42;;;12.75;;
27533;SDS011;14973;51.460;7.008;2022-10-31T00:16:16;29.08;;;11.73;;
27533;SDS011;14973;51.460;7.008;2022-10-31T00:18:49;33.55;;;12.80;;
27533;SDS011;14973;51.460;7.008;2022-10-31T00:21:16;29.38;;;11.40;;
27533;SDS011;14973;51.460;7.008;2022-10-31T00:23:42;29.15;;;12.65;;
27533;SDS011;14973;51.460;7.008;2022-10-31T00:26:08;27.45;;;11.98;;
27533;SDS011;14973;51.460;7.008;2022-10-31T00:28:33;27.38;;;11.88;;
27533;SDS011;14973;51.460;7.008;2022-10-31T00:31:00;33.28;;;13.38;;
27533;SDS011;14973;51.460;7.008;2022-10-31T00:33:27;29.77;;;12.10;;
27533;SDS011;14973;51.460;7.008;2022-10-31T00:35:53;35.33;;;12.65;;
27533;SDS011;14973;51.460;7.008;2022-10-31T00:38:18;25.35;;;11.65;;
27533;SDS011;14973;51.460;7.008;2022-10-31T00:40:44;30.13;;;13.32;;
27533;SDS011;14973;51.460;7.008;2022-10-31T00:43:10;31.70;;;12.93;;
27533;SDS011;14973;51.460;7.008;2022-10-31T00:45:35;30.65;;;12.27;;
27533;SDS011;14973;51.460;7.008;2022-10-31T00:48:01;31.58;;;12.85;;
27533;SDS011;14973;51.460;7.008;2022-10-31T00:50:26;28.10;;;12.65;;
27533;SDS011;14973;51.460;7.008;2022-10-31T00:52:52;33.22;;;13.25;;
27533;SDS011;14973;51.460;7.008;2022-10-31T00:55:17;26.33;;;12.15;;
27533;SDS011;14973;51.460;7.008;2022-10-31T00:57:45;36.95;;;11.75;;
27533;SDS011;14973;51.460;7.008;2022-10-31T01:00:12;31.60;;;12.13;;
27533;SDS011;14973;51.460;7.008;2022-10-31T01:02:37;26.40;;;11.75;;
27533;SDS011;14973;51.460;7.008;2022-10-31T01:05:03;30.08;;;11.18;;
27533;SDS011;14973;51.460;7.008;2022-10-31T01:07:29;29.17;;;11.45;;
27533;SDS011;14973;51.460;7.008;2022-10-31T01:09:54;29.20;;;10.90;;
27533;SDS011;14973;51.460;7.008;2022-10-31T01:12:20;24.95;;;10.73;;
27533;SDS011;14973;51.460;7.008;2022-10-31T01:14:45;28.58;;;11.35;;
27533;SDS011;14973;51.460;7.008;2022-10-31T01:17:11;28.85;;;12.25;;
27533;SDS011;14973;51.460;7.008;2022-10-31T01:19:38;26.70;;;10.82;;
27533;SDS011;14973;51.460;7.008;2022-10-31T01:22:03;26.58;;;9.73;;
27533;SDS011;14973;51.460;7.008;2022-10-31T01:24:29;31.45;;;9.90;;
27533;SDS011;14973;51.460;7.008;2022-10-31T01:26:55;30.50;;;9.45;;
27533;SDS011;14973;51.460;7.008;2022-10-31T01:29:21;23.85;;;9.57;;
27533;SDS011;14973;51.460;7.008;2022-10-31T01:31:46;23.48;;;10.57;;
27533;SDS011;14973;51.460;7.008;2022-10-31T01:34:12;23.80;;;10.13;;
27533;SDS011;14973;51.460;7.008;2022-10-31T01:36:40;23.63;;;9.65;;
27533;SDS011;14973;51.460;7.008;2022-10-31T01:39:08;29.95;;;10.73;;
27533;SDS011;14973;51.460;7.008;2022-10-31T01:41:37;22.13;;;9.77;;
27533;SDS011;14973;51.460;7.008;2022-10-31T01:46:53;25.63;;;10.13;;
27533;SDS011;14973;51.460;7.008;2022-10-31T01:49:51;26.30;;;10.23;;
27533;SDS011;14973;51.460;7.008;2022-10-31T01:55:12;29.33;;;10.75;;
27533;SDS011;14973;51.460;7.008;2022-10-31T01:57:46;27.85;;;11.80;;
27533;SDS011;14973;51.460;7.008;2022-10-31T02:00:14;36.30;;;12.73;;
27533;SDS011;14973;51.460;7.008;2022-10-31T02:02:41;32.47;;;12.85;;
27533;SDS011;14973;51.460;7.008;2022-10-31T02:05:10;32.47;;;12.82;;
27533;SDS011;14973;51.460;7.008;2022-10-31T02:08:01;34.35;;;13.80;;
27533;SDS011;14973;51.460;7.008;2022-10-31T02:10:49;33.13;;;14.27;;
27533;SDS011;14973;51.460;7.008;2022-10-31T02:13:15;49.53;;;17.42;;
27533;SDS011;14973;51.460;7.008;2022-10-31T02:15:41;34.13;;;14.88;;
27533;SDS011;14973;51.460;7.008;2022-10-31T02:18:09;29.90;;;13.25;;
27533;SDS011;14973;51.460;7.008;2022-10-31T02:20:57;36.15;;;14.85;;
27533;SDS011;14973;51.460;7.008;2022-10-31T02:42:18;36.13;;;15.15;;
27533;SDS011;14973;51.460;7.008;2022-10-31T02:44:58;35.83;;;14.70;;
27533;SDS011;14973;51.460;7.008;2022-10-31T02:47:36;36.30;;;16.63;;
27533;SDS011;14973;51.460;7.008;2022-10-31T02:50:07;35.28;;;15.15;;
27533;SDS011;14973;51.460;7.008;2022-10-31T02:52:41;34.72;;;15.10;;
27533;SDS011;14973;51.460;7.008;2022-10-31T02:55:10;36.03;;;15.88;;
27533;SDS011;14973;51.460;7.008;2022-10-31T02:57:57;33.65;;;14.60;;
27533;SDS011;14973;51.460;7.008;2022-10-31T03:00:33;33.33;;;14.35;;
27533;SDS011;14973;51.460;7.008;2022-10-31T03:08:23;29.85;;;13.45;;
27533;SDS011;14973;51.460;7.008;2022-10-31T03:10:54;32.63;;;14.30;;
27533;SDS011;14973;51.460;7.008;2022-10-31T03:16:03;32.17;;;14.25;;
27533;SDS011;14973;51.460;7.008;2022-10-31T03:18:34;33.95;;;14.77;;
27533;SDS011;14973;51.460;7.008;2022-10-31T03:21:05;42.15;;;16.95;;
27533;SDS011;14973;51.460;7.008;2022-10-31T03:23:36;35.10;;;15.25;;
27533;SDS011;14973;51.460;7.008;2022-10-31T03:26:04;39.42;;;16.20;;
27533;SDS011;14973;51.460;7.008;2022-10-31T03:28:53;31.27;;;15.05;;
27533;SDS011;14973;51.460;7.008;2022-10-31T03:31:24;31.17;;;15.00;;
27533;SDS011;14973;51.460;7.008;2022-10-31T03:33:54;36.45;;;16.73;;
27533;SDS011;14973;51.460;7.008;2022-10-31T03:36:23;36.58;;;17.23;;
27533;SDS011;14973;51.460;7.008;2022-10-31T03:38:49;46.80;;;17.90;;
27533;SDS011;14973;51.460;7.008;2022-10-31T03:41:17;48.08;;;17.98;;
27533;SDS011;14973;51.460;7.008;2022-10-31T03:43:48;42.45;;;17.02;;
27533;SDS011;14973;51.460;7.008;2022-10-31T03:46:19;38.53;;;17.33;;
27533;SDS011;14973;51.460;7.008;2022-10-31T03:48:45;36.40;;;17.48;;
27533;SDS011;14973;51.460;7.008;2022-10-31T03:51:22;39.60;;;18.00;;
27533;SDS011;14973;51.460;7.008;2022-10-31T03:53:56;43.95;;;18.00;;
27533;SDS011;14973;51.460;7.008;2022-10-31T03:56:33;39.20;;;17.08;;
27533;SDS011;14973;51.460;7.008;2022-10-31T03:59:09;47.72;;;18.08;;
27533;SDS011;14973;51.460;7.008;2022-10-31T04:04:08;45.92;;;19.10;;
27533;SDS011;14973;51.460;7.008;2022-10-31T04:06:35;39.22;;;18.48;;
27533;SDS011;14973;51.460;7.008;2022-10-31T04:09:04;44.13;;;17.85;;
27533;SDS011;14973;51.460;7.008;2022-10-31T04:11:33;42.80;;;18.08;;
27533;SDS011;14973;51.460;7.008;2022-10-31T04:14:04;38.88;;;17.13;;
27533;SDS011;14973;51.460;7.008;2022-10-31T04:16:31;44.15;;;18.40;;
27533;SDS011;14973;51.460;7.008;2022-10-31T04:18:56;40.03;;;17.30;;
27533;SDS011;14973;51.460;7.008;2022-10-31T04:21:28;41.35;;;17.55;;
27533;SDS011;14973;51.460;7.008;2022-10-31T04:23:55;39.22;;;17.38;;
27533;SDS011;14973;51.460;7.008;2022-10-31T04:26:21;38.97;;;18.00;;
27533;SDS011;14973;51.460;7.008;2022-10-31T04:28:47;40.17;;;17.80;;
27533;SDS011;14973;51.460;7.008;2022-10-31T04:31:12;37.97;;;18.17;;
27533;SDS011;14973;51.460;7.008;2022-10-31T04:33:39;50.45;;;17.45;;
27533;SDS011;14973;51.460;7.008;2022-10-31T04:36:04;43.40;;;18.15;;
27533;SDS011;14973;51.460;7.008;2022-10-31T04:38:30;44.38;;;17.48;;
27533;SDS011;14973;51.460;7.008;2022-10-31T04:40:55;38.83;;;16.63;;
27533;SDS011;14973;51.460;7.008;2022-10-31T04:43:21;48.22;;;18.77;;
27533;SDS011;14973;51.460;7.008;2022-10-31T04:45:47;49.50;;;17.55;;
27533;SDS011;14973;51.460;7.008;2022-10-31T04:48:13;47.10;;;18.27;;
27533;SDS011;14973;51.460;7.008;2022-10-31T04:50:38;46.60;;;17.45;;
27533;SDS011;14973;51.460;7.008;2022-10-31T04:53:04;41.05;;;17.40;;
27533;SDS011;14973;51.460;7.008;2022-10-31T04:55:30;42.65;;;18.88;;
27533;SDS011;14973;51.460;7.008;2022-10-31T04:57:55;44.33;;;19.08;;
27533;SDS011;14973;51.460;7.008;2022-10-31T05:00:22;49.72;;;19.60;;
27533;SDS011;14973;51.460;7.008;2022-10-31T05:02:52;47.20;;;19.80;;
27533;SDS011;14973;51.460;7.008;2022-10-31T05:05:19;49.88;;;18.90;;
27533;SDS011;14973;51.460;7.008;2022-10-31T05:07:47;52.70;;;21.27;;
27533;SDS011;14973;51.460;7.008;2022-10-31T05:10:14;48.25;;;19.60;;
27533;SDS011;14973;51.460;7.008;2022-10-31T05:12:46;47.40;;;20.20;;
27533;SDS011;14973;51.460;7.008;2022-10-31T05:15:13;45.10;;;18.88;;
27533;SDS011;14973;51.460;7.008;2022-10-31T05:17:39;43.47;;;19.27;;
27533;SDS011;14973;51.460;7.008;2022-10-31T05:20:05;38.75;;;18.17;;
27533;SDS011;14973;51.460;7.008;2022-10-31T05:22:31;52.42;;;19.17;;
27533;SDS011;14973;51.460;7.008;2022-10-31T05:24:56;50.42;;;18.13;;
27533;SDS011;14973;51.460;7.008;2022-10-31T05:27:22;62.00;;;20.52;;
27533;SDS011;14973;51.460;7.008;2022-10-31T05:29:47;43.65;;;17.98;;
27533;SDS011;14973;51.460;7.008;2022-10-31T05:32:13;52.65;;;19.75;;
27533;SDS011;14973;51.460;7.008;2022-10-31T05:34:39;43.70;;;17.73;;
27533;SDS011;14973;51.460;7.008;2022-10-31T05:37:04;49.92;;;18.88;;
27533;SDS011;14973;51.460;7.008;2022-10-31T05:39:30;45.70;;;18.55;;
27533;SDS011;14973;51.460;7.008;2022-10-31T05:41:56;39.22;;;18.30;;
27533;SDS011;14973;51.460;7.008;2022-10-31T05:44:21;50.55;;;19.10;;
27533;SDS011;14973;51.460;7.008;2022-10-31T05:46:47;46.63;;;18.52;;
27533;SDS011;14973;51.460;7.008;2022-10-31T05:49:12;44.53;;;18.50;;
27533;SDS011;14973;51.460;7.008;2022-10-31T05:51:38;42.55;;;18.63;;
27533;SDS011;14973;51.460;7.008;2022-10-31T05:54:03;48.65;;;19.75;;
27533;SDS011;14973;51.460;7.008;2022-10-31T05:56:29;53.55;;;18.30;;
27533;SDS011;14973;51.460;7.008;2022-10-31T05:58:55;48.00;;;19.98;;
27533;SDS011;14973;51.460;7.008;2022-10-31T06:01:21;44.22;;;19.55;;
27533;SDS011;14973;51.460;7.008;2022-10-31T06:03:46;46.83;;;18.88;;
27533;SDS011;14973;51.460;7.008;2022-10-31T06:06:12;46.53;;;19.40;;
27533;SDS011;14973;51.460;7.008;2022-10-31T06:08:37;44.30;;;19.17;;
27533;SDS011;14973;51.460;7.008;2022-10-31T06:11:03;48.50;;;19.65;;
27533;SDS011;14973;51.460;7.008;2022-10-31T06:13:29;40.45;;;19.10;;
27533;SDS011;14973;51.460;7.008;2022-10-31T06:15:54;45.38;;;19.15;;
27533;SDS011;14973;51.460;7.008;2022-10-31T06:18:20;42.60;;;19.40;;
27533;SDS011;14973;51.460;7.008;2022-10-31T06:20:46;41.33;;;19.95;;
27533;SDS011;14973;51.460;7.008;2022-10-31T06:23:11;52.13;;;19.88;;
27533;SDS011;14973;51.460;7.008;2022-10-31T06:25:37;58.30;;;21.63;;
27533;SDS011;14973;51.460;7.008;2022-10-31T06:28:02;56.08;;;20.50;;
27533;SDS011;14973;51.460;7.008;2022-10-31T06:30:28;55.25;;;20.73;;
27533;SDS011;14973;51.460;7.008;2022-10-31T06:32:54;50.70;;;20.40;;
27533;SDS011;14973;51.460;7.008;2022-10-31T06:35:20;51.97;;;20.48;;
27533;SDS011;14973;51.460;7.008;2022-10-31T06:37:54;38.25;;;18.42;;
27533;SDS011;14973;51.460;7.008;2022-10-31T06:40:20;51.13;;;19.85;;
27533;SDS011;14973;51.460;7.008;2022-10-31T06:42:46;60.72;;;22.67;;
27533;SDS011;14973;51.460;7.008;2022-10-31T06:45:12;54.03;;;20.10;;
27533;SDS011;14973;51.460;7.008;2022-10-31T06:47:37;48.25;;;20.15;;
27533;SDS011;14973;51.460;7.008;2022-10-31T06:50:03;46.42;;;21.10;;
27533;SDS011;14973;51.460;7.008;2022-10-31T06:52:29;56.08;;;23.67;;
27533;SDS011;14973;51.460;7.008;2022-10-31T06:54:55;69.13;;;22.63;;
27533;SDS011;14973;51.460;7.008;2022-10-31T06:57:20;47.35;;;20.83;;
27533;SDS011;14973;51.460;7.008;2022-10-31T06:59:46;54.45;;;21.52;;
27533;SDS011;14973;51.460;7.008;2022-10-31T07:02:12;53.38;;;21.75;;
27533;SDS011;14973;51.460;7.008;2022-10-31T07:04:37;53.45;;;22.65;;
27533;SDS011;14973;51.460;7.008;2022-10-31T07:07:03;56.03;;;24.33;;
27533;SDS011;14973;51.460;7.008;2022-10-31T07:09:28;59.25;;;24.95;;
27533;SDS011;14973;51.460;7.008;2022-10-31T07:11:54;53.92;;;22.65;;
27533;SDS011;14973;51.460;7.008;2022-10-31T07:14:20;55.95;;;23.40;;
27533;SDS011;14973;51.460;7.008;2022-10-31T07:16:49;59.60;;;24.70;;
27533;SDS011;14973;51.460;7.008;2022-10-31T07:19:15;55.13;;;23.05;;
27533;SDS011;14973;51.460;7.008;2022-10-31T07:21:41;56.25;;;23.60;;
27533;SDS011;14973;51.460;7.008;2022-10-31T07:24:06;55.25;;;22.15;;
27533;SDS011;14973;51.460;7.008;2022-10-31T07:26:32;52.90;;;22.05;;
27533;SDS011;14973;51.460;7.008;2022-10-31T07:28:58;47.38;;;20.80;;
27533;SDS011;14973;51.460;7.008;2022-10-31T07:31:24;50.00;;;21.65;;
27533;SDS011;14973;51.460;7.008;2022-10-31T07:33:50;45.85;;;20.02;;
27533;SDS011;14973;51.460;7.008;2022-10-31T07:36:16;52.33;;;21.02;;
27533;SDS011;14973;51.460;7.008;2022-10-31T07:38:41;52.67;;;21.98;;
27533;SDS011;14973;51.460;7.008;2022-10-31T07:41:07;47.05;;;21.30;;
27533;SDS011;14973;51.460;7.008;2022-10-31T07:43:32;51.97;;;22.05;;
27533;SDS011;14973;51.460;7.008;2022-10-31T07:45:58;52.55;;;21.23;;
27533;SDS011;14973;51.460;7.008;2022-10-31T07:48:24;50.55;;;20.73;;
27533;SDS011;14973;51.460;7.008;2022-10-31T07:50:49;44.85;;;20.77;;
27533;SDS011;14973;51.460;7.008;2022-10-31T07:53:15;52.80;;;22.88;;
27533;SDS011;14973;51.460;7.008;2022-10-31T07:55:41;42.35;;;21.05;;
27533;SDS011;14973;51.460;7.008;2022-10-31T07:58:11;58.30;;;21.02;;
27533;SDS011;14973;51.460;7.008;2022-10-31T08:00:38;55.97;;;20.58;;
27533;SDS011;14973;51.460;7.008;2022-10-31T08:03:06;57.35;;;22.63;;
27533;SDS011;14973;51.460;7.008;2022-10-31T08:05:33;53.22;;;22.55;;
27533;SDS011;14973;51.460;7.008;2022-10-31T08:08:00;63.15;;;22.25;;
27533;SDS011;14973;51.460;7.008;2022-10-31T08:10:27;48.45;;;21.63;;
27533;SDS011;14973;51.460;7.008;2022-10-31T08:12:56;48.63;;;21.58;;
27533;SDS011;14973;51.460;7.008;2022-10-31T08:15:22;48.17;;;21.08;;
27533;SDS011;14973;51.460;7.008;2022-10-31T08:17:49;48.00;;;20.77;;
27533;SDS011;14973;51.460;7.008;2022-10-31T08:20:14;49.25;;;21.88;;
27533;SDS011;14973;51.460;7.008;2022-10-31T08:22:40;51.97;;;22.52;;
27533;SDS011;14973;51.460;7.008;2022-10-31T08:25:06;50.13;;;22.77;;
27533;SDS011;14973;51.460;7.008;2022-10-31T08:27:31;61.08;;;24.02;;
27533;SDS011;14973;51.460;7.008;2022-10-31T08:29:57;51.60;;;22.95;;
27533;SDS011;14973;51.460;7.008;2022-10-31T08:32:23;46.28;;;22.35;;
27533;SDS011;14973;51.460;7.008;2022-10-31T08:34:49;58.50;;;23.83;;
27533;SDS011;14973;51.460;7.008;2022-10-31T08:37:15;56.95;;;23.83;;
27533;SDS011;14973;51.460;7.008;2022-10-31T08:39:44;46.20;;;23.30;;
27533;SDS011;14973;51.460;7.008;2022-10-31T08:42:11;53.55;;;25.23;;
27533;SDS011;14973;51.460;7.008;2022-10-31T08:44:36;53.78;;;24.42;;
27533;SDS011;14973;51.460;7.008;2022-10-31T08:47:02;57.85;;;24.35;;
27533;SDS011;14973;51.460;7.008;2022-10-31T08:49:28;53.40;;;22.63;;
27533;SDS011;14973;51.460;7.008;2022-10-31T08:51:53;48.53;;;22.20;;
27533;SDS011;14973;51.460;7.008;2022-10-31T08:54:19;55.95;;;24.50;;
27533;SDS011;14973;51.460;7.008;2022-10-31T08:56:45;51.72;;;23.45;;
27533;SDS011;14973;51.460;7.008;2022-10-31T08:59:11;48.85;;;22.52;;
27533;SDS011;14973;51.460;7.008;2022-10-31T09:01:37;56.25;;;25.13;;
27533;SDS011;14973;51.460;7.008;2022-10-31T09:04:02;57.10;;;23.15;;
27533;SDS011;14973;51.460;7.008;2022-10-31T09:06:28;57.80;;;24.63;;
27533;SDS011;14973;51.460;7.008;2022-10-31T09:08:53;59.28;;;25.17;;
27533;SDS011;14973;51.460;7.008;2022-10-31T09:11:19;61.55;;;24.60;;
27533;SDS011;14973;51.460;7.008;2022-10-31T09:13:45;62.60;;;24.15;;
27533;SDS011;14973;51.460;7.008;2022-10-31T09:16:10;51.40;;;23.75;;
27533;SDS011;14973;51.460;7.008;2022-10-31T09:18:36;53.50;;;23.88;;
27533;SDS011;14973;51.460;7.008;2022-10-31T09:21:01;68.47;;;25.88;;
27533;SDS011;14973;51.460;7.008;2022-10-31T09:23:27;61.08;;;26.30;;
27533;SDS011;14973;51.460;7.008;2022-10-31T09:25:53;62.95;;;25.40;;
27533;SDS011;14973;51.460;7.008;2022-10-31T09:28:20;62.47;;;27.58;;
27533;SDS011;14973;51.460;7.008;2022-10-31T09:30:48;57.30;;;27.02;;
27533;SDS011;14973;51.460;7.008;2022-10-31T09:33:15;67.50;;;27.42;;
27533;SDS011;14973;51.460;7.008;2022-10-31T09:35:41;62.40;;;27.20;;
27533;SDS011;14973;51.460;7.008;2022-10-31T09:38:11;68.63;;;26.23;;
27533;SDS011;14973;51.460;7.008;2022-10-31T09:40:40;69.55;;;27.40;;
27533;SDS011;14973;51.460;7.008;2022-10-31T09:51:25;75.30;;;26.77;;
27533;SDS011;14973;51.460;7.008;2022-10-31T09:54:42;65.70;;;26.85;;
27533;SDS011;14973;51.460;7.008;2022-10-31T09:56:59;66.63;;;26.63;;
27533;SDS011;14973;51.460;7.008;2022-10-31T09:59:28;56.30;;;24.95;;
27533;SDS011;14973;51.460;7.008;2022-10-31T10:02:01;62.88;;;25.30;;
27533;SDS011;14973;51.460;7.008;2022-10-31T10:04:57;62.88;;;26.17;;
27533;SDS011;14973;51.460;7.008;2022-10-31T10:07:44;57.90;;;26.10;;
27533;SDS011;14973;51.460;7.008;2022-10-31T10:10:16;67.65;;;26.58;;
27533;SDS011;14973;51.460;7.008;2022-10-31T10:12:57;59.15;;;24.92;;
27533;SDS011;14973;51.460;7.008;2022-10-31T10:15:31;75.45;;;27.20;;
27533;SDS011;14973;51.460;7.008;2022-10-31T10:24:20;66.07;;;26.17;;
27533;SDS011;14973;51.460;7.008;2022-10-31T10:27:21;71.13;;;26.45;;
27533;SDS011;14973;51.460;7.008;2022-10-31T10:30:11;59.42;;;25.90;;
27533;SDS011;14973;51.460;7.008;2022-10-31T10:32:51;55.33;;;24.90;;
27533;SDS011;14973;51.460;7.008;2022-10-31T10:37:52;62.20;;;23.45;;
27533;SDS011;14973;51.460;7.008;2022-10-31T10:40:24;62.03;;;22.73;;
27533;SDS011;14973;51.460;7.008;2022-10-31T10:48:50;54.75;;;24.33;;
27533;SDS011;14973;51.460;7.008;2022-10-31T10:51:39;49.65;;;21.40;;
27533;SDS011;14973;51.460;7.008;2022-10-31T10:59:36;50.05;;;22.83;;
27533;SDS011;14973;51.460;7.008;2022-10-31T11:02:02;64.88;;;24.02;;
27533;SDS011;14973;51.460;7.008;2022-10-31T11:06:59;43.92;;;21.70;;
27533;SDS011;14973;51.460;7.008;2022-10-31T11:09:27;62.10;;;22.58;;
27533;SDS011;14973;51.460;7.008;2022-10-31T11:11:54;63.60;;;22.55;;
27533;SDS011;14973;51.460;7.008;2022-10-31T11:14:20;52.40;;;22.48;;
27533;SDS011;14973;51.460;7.008;2022-10-31T11:16:48;53.90;;;21.17;;
27533;SDS011;14973;51.460;7.008;2022-10-31T11:19:22;47.90;;;20.52;;
27533;SDS011;14973;51.460;7.008;2022-10-31T11:21:53;51.13;;;20.80;;
27533;SDS011;14973;51.460;7.008;2022-10-31T11:24:20;54.33;;;20.95;;
27533;SDS011;14973;51.460;7.008;2022-10-31T11:26:48;57.22;;;21.27;;
27533;SDS011;14973;51.460;7.008;2022-10-31T11:29:24;50.55;;;20.05;;
27533;SDS011;14973;51.460;7.008;2022-10-31T11:31:53;44.13;;;18.25;;
27533;SDS011;14973;51.460;7.008;2022-10-31T11:34:25;46.00;;;19.95;;
27533;SDS011;14973;51.460;7.008;2022-10-31T11:36:56;44.70;;;19.17;;
27533;SDS011;14973;51.460;7.008;2022-10-31T11:39:44;56.47;;;19.85;;
27533;SDS011;14973;51.460;7.008;2022-10-31T11:42:17;40.90;;;17.08;;
27533;SDS011;14973;51.460;7.008;2022-10-31T11:44:49;45.50;;;18.88;;
27533;SDS011;14973;51.460;7.008;2022-10-31T11:47:16;47.88;;;19.02;;
27533;SDS011;14973;51.460;7.008;2022-10-31T11:49:45;43.17;;;17.98;;
27533;SDS011;14973;51.460;7.008;2022-10-31T11:52:18;42.38;;;16.23;;
27533;SDS011;14973;51.460;7.008;2022-10-31T11:57:47;35.55;;;15.73;;
27533;SDS011;14973;51.460;7.008;2022-10-31T12:00:25;49.13;;;17.15;;
27533;SDS011;14973;51.460;7.008;2022-10-31T12:03:04;49.63;;;21.50;;
27533;SDS011;14973;51.460;7.008;2022-10-31T12:05:55;40.88;;;15.52;;
27533;SDS011;14973;51.460;7.008;2022-10-31T12:08:38;37.33;;;16.38;;
27533;SDS011;14973;51.460;7.008;2022-10-31T12:14:05;28.42;;;13.90;;
27533;SDS011;14973;51.460;7.008;2022-10-31T12:16:42;38.05;;;15.85;;
27533;SDS011;14973;51.460;7.008;2022-10-31T12:19:38;38.40;;;14.07;;
27533;SDS011;14973;51.460;7.008;2022-10-31T12:27:49;29.33;;;13.13;;
27533;SDS011;14973;51.460;7.008;2022-10-31T12:35:45;32.42;;;12.85;;
27533;SDS011;14973;51.460;7.008;2022-10-31T12:38:47;30.80;;;12.90;;
27533;SDS011;14973;51.460;7.008;2022-10-31T12:44:04;40.60;;;13.52;;
27533;SDS011;14973;51.460;7.008;2022-10-31T12:55:31;28.85;;;11.57;;
27533;SDS011;14973;51.460;7.008;2022-10-31T13:00:41;33.67;;;11.23;;
27533;SDS011;14973;51.460;7.008;2022-10-31T13:05:59;36.13;;;11.43;;
27533;SDS011;14973;51.460;7.008;2022-10-31T13:08:40;29.83;;;9.60;;
27533;SDS011;14973;51.460;7.008;2022-10-31T13:11:22;32.40;;;9.88;;
27533;SDS011;14973;51.460;7.008;2022-10-31T13:16:31;25.30;;;10.25;;
27533;SDS011;14973;51.460;7.008;2022-10-31T13:19:03;29.52;;;8.60;;
27533;SDS011;14973;51.460;7.008;2022-10-31T13:21:41;27.67;;;8.48;;
27533;SDS011;14973;51.460;7.008;2022-10-31T13:24:16;27.30;;;8.65;;
27533;SDS011;14973;51.460;7.008;2022-10-31T13:26:47;26.65;;;8.40;;
27533;SDS011;14973;51.460;7.008;2022-10-31T13:31:52;27.23;;;8.70;;
27533;SDS011;14973;51.460;7.008;2022-10-31T13:34:21;23.48;;;7.63;;
27533;SDS011;14973;51.460;7.008;2022-10-31T13:43:05;27.55;;;8.20;;
27533;SDS011;14973;51.460;7.008;2022-10-31T13:45:52;28.33;;;7.30;;
27533;SDS011;14973;51.460;7.008;2022-10-31T13:48:28;26.55;;;8.00;;
27533;SDS011;14973;51.460;7.008;2022-10-31T13:51:03;26.10;;;7.05;;
27533;SDS011;14973;51.460;7.008;2022-10-31T13:53:36;16.13;;;6.30;;
27533;SDS011;14973;51.460;7.008;2022-10-31T13:58:42;28.83;;;6.72;;
27533;SDS011;14973;51.460;7.008;2022-10-31T14:01:26;27.20;;;7.10;;
27533;SDS011;14973;51.460;7.008;2022-10-31T14:06:40;21.80;;;6.38;;
27533;SDS011;14973;51.460;7.008;2022-10-31T14:09:19;28.02;;;6.78;;
27533;SDS011;14973;51.460;7.008;2022-10-31T14:12:10;20.38;;;5.78;;
27533;SDS011;14973;51.460;7.008;2022-10-31T14:15:14;26.45;;;6.72;;
27533;SDS011;14973;51.460;7.008;2022-10-31T14:18:00;20.95;;;6.40;;
27533;SDS011;14973;51.460;7.008;2022-10-31T14:31:36;19.67;;;6.32;;
27533;SDS011;14973;51.460;7.008;2022-10-31T14:40:14;31.90;;;7.85;;
27533;SDS011;14973;51.460;7.008;2022-10-31T14:43:13;29.85;;;8.13;;
27533;SDS011;14973;51.460;7.008;2022-10-31T14:51:19;20.05;;;8.35;;
27533;SDS011;14973;51.460;7.008;2022-10-31T14:53:48;25.45;;;8.85;;
27533;SDS011;14973;51.460;7.008;2022-10-31T14:56:21;20.80;;;8.27;;
27533;SDS011;14973;51.460;7.008;2022-10-31T14:58:50;30.30;;;8.30;;
27533;SDS011;14973;51.460;7.008;2022-10-31T15:03:52;32.75;;;7.00;;
27533;SDS011;14973;51.460;7.008;2022-10-31T15:06:31;20.92;;;7.10;;
27533;SDS011;14973;51.460;7.008;2022-10-31T15:11:45;21.40;;;5.57;;
27533;SDS011;14973;51.460;7.008;2022-10-31T15:14:20;16.50;;;5.72;;
27533;SDS011;14973;51.460;7.008;2022-10-31T15:16:55;20.30;;;6.22;;
27533;SDS011;14973;51.460;7.008;2022-10-31T15:19:26;19.17;;;6.40;;
27533;SDS011;14973;51.460;7.008;2022-10-31T15:21:54;27.80;;;7.10;;
27533;SDS011;14973;51.460;7.008;2022-10-31T15:24:22;24.63;;;7.90;;
27533;SDS011;14973;51.460;7.008;2022-10-31T15:27:02;22.17;;;6.00;;
27533;SDS011;14973;51.460;7.008;2022-10-31T15:29:28;25.08;;;6.28;;
27533;SDS011;14973;51.460;7.008;2022-10-31T15:31:59;22.05;;;6.72;;
27533;SDS011;14973;51.460;7.008;2022-10-31T15:34:45;21.73;;;6.28;;
27533;SDS011;14973;51.460;7.008;2022-10-31T15:37:15;21.85;;;6.97;;
27533;SDS011;14973;51.460;7.008;2022-10-31T15:39:43;28.40;;;5.53;;
27533;SDS011;14973;51.460;7.008;2022-10-31T15:42:20;21.70;;;6.50;;
27533;SDS011;14973;51.460;7.008;2022-10-31T15:44:51;20.23;;;6.68;;
27533;SDS011;14973;51.460;7.008;2022-10-31T15:47:22;17.98;;;6.28;;
27533;SDS011;14973;51.460;7.008;2022-10-31T15:49:50;16.00;;;6.30;;
27533;SDS011;14973;51.460;7.008;2022-10-31T15:55:05;20.65;;;6.85;;
27533;SDS011;14973;51.460;7.008;2022-10-31T15:57:44;31.83;;;8.73;;
27533;SDS011;14973;51.460;7.008;2022-10-31T16:00:25;27.13;;;9.32;;
27533;SDS011;14973;51.460;7.008;2022-10-31T16:05:53;23.38;;;9.50;;
27533;SDS011;14973;51.460;7.008;2022-10-31T16:08:45;24.67;;;8.00;;
27533;SDS011;14973;51.460;7.008;2022-10-31T16:11:15;23.48;;;7.13;;
27533;SDS011;14973;51.460;7.008;2022-10-31T16:14:02;26.98;;;6.90;;
27533;SDS011;14973;51.460;7.008;2022-10-31T16:16:41;23.65;;;6.60;;
27533;SDS011;14973;51.460;7.008;2022-10-31T16:19:22;24.58;;;8.35;;
27533;SDS011;14973;51.460;7.008;2022-10-31T16:22:40;27.42;;;6.93;;
27533;SDS011;14973;51.460;7.008;2022-10-31T16:27:30;19.48;;;6.38;;
27533;SDS011;14973;51.460;7.008;2022-10-31T16:29:58;28.23;;;7.32;;
27533;SDS011;14973;51.460;7.008;2022-10-31T16:32:33;34.13;;;7.50;;
27533;SDS011;14973;51.460;7.008;2022-10-31T16:38:01;25.63;;;6.65;;
27533;SDS011;14973;51.460;7.008;2022-10-31T16:40:28;28.55;;;7.00;;
27533;SDS011;14973;51.460;7.008;2022-10-31T16:42:55;23.45;;;7.47;;
27533;SDS011;14973;51.460;7.008;2022-10-31T16:45:24;15.27;;;6.50;;
27533;SDS011;14973;51.460;7.008;2022-10-31T16:47:51;24.10;;;10.38;;
27533;SDS011;14973;51.460;7.008;2022-10-31T16:50:21;23.35;;;7.72;;
27533;SDS011;14973;51.460;7.008;2022-10-31T16:52:48;25.88;;;7.75;;
27533;SDS011;14973;51.460;7.008;2022-10-31T16:55:14;19.27;;;6.93;;
27533;SDS011;14973;51.460;7.008;2022-10-31T16:57:43;20.67;;;7.35;;
27533;SDS011;14973;51.460;7.008;2022-10-31T17:00:14;27.27;;;8.13;;
27533;SDS011;14973;51.460;7.008;2022-10-31T17:05:12;43.55;;;17.15;;
27533;SDS011;14973;51.460;7.008;2022-10-31T17:07:39;34.55;;;13.32;;
27533;SDS011;14973;51.460;7.008;2022-10-31T17:10:05;49.00;;;13.02;;
27533;SDS011;14973;51.460;7.008;2022-10-31T17:12:31;37.75;;;12.80;;
27533;SDS011;14973;51.460;7.008;2022-10-31T17:14:57;30.73;;;11.35;;
27533;SDS011;14973;51.460;7.008;2022-10-31T17:17:23;27.52;;;9.73;;
27533;SDS011;14973;51.460;7.008;2022-10-31T17:19:49;29.27;;;9.60;;